createdAt,value
2018-01-27T00:00:30.891Z,1.30
2018-01-27T00:02:58.407Z,1.20
2018-01-27T00:05:26.717Z,1.43
2018-01-27T00:07:54.239Z,1.10
2018-01-27T00:10:21.788Z,1.10
2018-01-27T00:12:49.311Z,1.13
2018-01-27T00:15:16.867Z,1.50
2018-01-27T00:17:44.398Z,1.30
2018-01-27T00:20:11.946Z,1.23
2018-01-27T00:22:51.423Z,1.37
2018-01-27T00:25:18.969Z,1.30
2018-01-27T00:27:46.490Z,1.20
2018-01-27T00:30:14.805Z,1.23
2018-01-27T00:32:42.330Z,1.53
2018-01-27T00:35:09.897Z,1.10
2018-01-27T00:37:39.163Z,1.50
2018-01-27T00:40:06.729Z,2.10
2018-01-27T00:42:35.026Z,2.00
2018-01-27T00:45:03.548Z,2.40
2018-01-27T00:47:31.100Z,2.10
2018-01-27T00:49:58.631Z,2.30
2018-01-27T00:52:26.184Z,1.60
2018-01-27T00:54:53.715Z,2.50
2018-01-27T00:57:21.230Z,2.47
2018-01-27T00:59:48.790Z,2.40
2018-01-27T01:02:17.255Z,2.00
2018-01-27T01:04:44.799Z,2.70
2018-01-27T01:07:13.091Z,2.50
2018-01-27T01:09:40.641Z,3.97
2018-01-27T01:12:08.169Z,2.50
2018-01-27T01:14:35.712Z,2.10
2018-01-27T01:17:03.235Z,1.53
2018-01-27T01:19:30.771Z,1.70
2018-01-27T01:21:58.311Z,1.50
2018-01-27T01:24:26.776Z,1.80
2018-01-27T01:26:56.022Z,2.00
2018-01-27T01:29:23.550Z,2.57
2018-01-27T01:31:51.094Z,2.00
2018-01-27T01:34:18.607Z,2.10
2018-01-27T01:36:46.150Z,3.07
2018-01-27T01:39:13.693Z,2.30
2018-01-27T01:41:42.003Z,2.50
2018-01-27T01:44:15.208Z,3.33
2018-01-27T01:46:42.749Z,3.23
2018-01-27T01:49:31.054Z,3.40
2018-01-27T01:51:59.579Z,3.60
2018-01-27T01:54:27.094Z,3.50
2018-01-27T01:56:54.649Z,3.83
2018-01-27T01:59:22.167Z,4.20
2018-01-27T02:01:49.718Z,4.00
2018-01-27T02:04:17.251Z,5.00
2018-01-27T02:06:45.783Z,6.90
2018-01-27T02:09:13.327Z,5.00
2018-01-27T02:11:40.874Z,6.67
2018-01-27T02:14:08.426Z,3.60
2018-01-27T02:16:35.997Z,3.73
2018-01-27T02:19:03.529Z,2.80
2018-01-27T02:21:34.292Z,2.20
2018-01-27T02:24:01.806Z,2.20
2018-01-27T02:26:30.286Z,1.93
2018-01-27T02:28:57.823Z,2.27
2018-01-27T02:31:25.372Z,2.10
2018-01-27T02:33:52.889Z,2.30
2018-01-27T02:36:21.420Z,2.20
2018-01-27T02:38:48.941Z,2.13
2018-01-27T02:41:16.486Z,2.00
2018-01-27T02:43:44.012Z,2.27
2018-01-27T02:46:11.531Z,2.33
2018-01-27T02:48:39.092Z,2.70
2018-01-27T02:51:06.610Z,2.50
2018-01-27T02:53:34.950Z,2.40
2018-01-27T02:56:03.230Z,2.30
2018-01-27T02:58:30.782Z,2.43
2018-01-27T03:00:58.494Z,2.40
2018-01-27T03:03:26.014Z,2.53
2018-01-27T03:05:53.577Z,2.27
2018-01-27T03:08:21.102Z,2.90
2018-01-27T03:10:48.650Z,2.70
2018-01-27T03:13:16.163Z,2.50
2018-01-27T03:15:44.494Z,2.40
2018-01-27T03:18:12.011Z,2.80
2018-01-27T03:20:40.514Z,2.67
2018-01-27T03:23:08.043Z,2.90
2018-01-27T03:25:37.307Z,3.60
2018-01-27T03:28:04.836Z,4.43
2018-01-27T03:30:32.354Z,5.27
2018-01-27T03:33:00.667Z,6.67
2018-01-27T03:35:28.177Z,6.15
2018-01-27T03:37:55.732Z,6.10
2018-01-27T03:40:24.222Z,6.40
2018-01-27T03:42:51.791Z,6.97
2018-01-27T03:45:20.074Z,6.73
2018-01-27T03:47:48.381Z,7.13
2018-01-27T03:50:15.982Z,5.00
2018-01-27T03:52:43.494Z,5.00
2018-01-27T03:55:12.021Z,4.27
2018-01-27T03:57:39.638Z,4.80
2018-01-27T04:00:07.197Z,5.77
2018-01-27T04:02:34.726Z,5.73
2018-01-27T04:05:02.272Z,6.60
2018-01-27T04:07:29.801Z,6.10
2018-01-27T04:09:57.346Z,6.43
2018-01-27T04:12:24.866Z,6.50
2018-01-27T04:14:52.399Z,6.60
2018-01-27T04:17:20.890Z,5.60
2018-01-27T04:19:48.441Z,4.83
2018-01-27T04:22:16.000Z,4.17
2018-01-27T04:24:43.523Z,4.23
2018-01-27T04:27:12.006Z,4.37
2018-01-27T04:29:39.528Z,4.43
2018-01-27T04:32:08.046Z,4.37
2018-01-27T04:34:35.563Z,5.10
2018-01-27T04:37:03.882Z,5.73
2018-01-27T04:39:31.398Z,5.50
2018-01-27T04:42:00.602Z,5.10
2018-01-27T04:44:28.150Z,5.70
2018-01-27T04:46:55.695Z,7.20
2018-01-27T04:49:24.113Z,7.70
2018-01-27T04:51:52.444Z,6.23
2018-01-27T04:54:19.984Z,7.67
2018-01-27T04:56:47.610Z,7.33
2018-01-27T04:59:15.114Z,6.00
2018-01-27T05:01:42.662Z,5.10
2018-01-27T05:04:10.207Z,4.47
2018-01-27T05:06:37.754Z,4.10
2018-01-27T05:09:05.275Z,3.83
2018-01-27T05:11:32.812Z,4.00
2018-01-27T05:14:00.327Z,4.03
2018-01-27T05:16:28.806Z,4.43
2018-01-27T05:18:58.357Z,3.63
2018-01-27T05:21:25.879Z,3.60
2018-01-27T05:23:53.427Z,3.80
2018-01-27T05:26:20.964Z,3.63
2018-01-27T05:28:48.514Z,3.53
2018-01-27T05:31:16.796Z,3.63
2018-01-27T05:33:44.319Z,3.80
2018-01-27T05:36:11.866Z,4.30
2018-01-27T05:38:39.388Z,3.57
2018-01-27T05:41:06.937Z,4.17
2018-01-27T05:43:34.459Z,3.83
2018-01-27T05:46:02.011Z,4.33
2018-01-27T05:48:29.534Z,4.13
2018-01-27T05:50:57.051Z,4.67
2018-01-27T05:53:25.368Z,5.93
2018-01-27T05:55:52.886Z,5.90
2018-01-27T05:58:21.193Z,5.40
2018-01-27T06:00:48.709Z,5.30
2018-01-27T06:03:16.262Z,6.90
2018-01-27T06:05:44.543Z,7.50
2018-01-27T06:08:12.066Z,11.30
2018-01-27T06:10:39.626Z,12.80
2018-01-27T06:13:07.155Z,12.30
2018-01-27T06:15:34.698Z,12.83
2018-01-27T06:18:02.237Z,17.00
2018-01-27T06:20:29.808Z,11.60
2018-01-27T06:22:57.322Z,7.60
2018-01-27T06:25:24.842Z,7.37
2018-01-27T06:27:52.388Z,7.63
2018-01-27T06:30:20.857Z,8.70
2018-01-27T06:32:48.414Z,10.37
2018-01-27T06:35:15.942Z,10.53
2018-01-27T06:37:43.498Z,10.67
2018-01-27T06:40:11.017Z,11.20
2018-01-27T06:42:39.302Z,10.53
2018-01-27T06:45:06.846Z,9.03
2018-01-27T06:47:35.376Z,9.10
2018-01-27T06:50:02.936Z,10.23
2018-01-27T06:52:30.681Z,10.37
2018-01-27T06:54:58.239Z,10.13
2018-01-27T06:57:25.766Z,9.63
2018-01-27T06:59:53.327Z,13.57
2018-01-27T07:02:20.846Z,10.03
2018-01-27T07:04:48.369Z,13.17
2018-01-27T07:07:15.923Z,13.17
2018-01-27T07:09:43.444Z,11.80
2018-01-27T07:12:11.971Z,12.93
2018-01-27T07:14:39.496Z,11.67
2018-01-27T07:17:07.826Z,9.87
2018-01-27T07:19:35.351Z,9.37
2018-01-27T07:22:02.879Z,14.10
2018-01-27T07:24:32.362Z,9.33
2018-01-27T07:26:59.891Z,9.00
2018-01-27T07:29:28.390Z,7.07
2018-01-27T07:31:56.899Z,7.30
2018-01-27T07:34:24.446Z,6.80
2018-01-27T07:36:52.775Z,6.70
2018-01-27T07:39:21.247Z,49.43
2018-01-27T07:41:49.645Z,80.73
2018-01-27T07:44:17.174Z,69.17
2018-01-27T07:46:44.713Z,8.90
2018-01-27T07:49:12.254Z,31.37
2018-01-27T07:51:39.826Z,39.27
2018-01-27T07:54:07.342Z,9.97
2018-01-27T07:56:34.864Z,9.37
2018-01-27T07:59:03.178Z,8.70
2018-01-27T08:01:30.722Z,9.27
2018-01-27T08:03:58.272Z,8.20
2018-01-27T08:06:25.838Z,10.00
2018-01-27T08:08:53.391Z,13.97
2018-01-27T08:11:20.918Z,14.23
2018-01-27T08:13:48.438Z,12.17
2018-01-27T08:16:15.998Z,11.67
2018-01-27T08:18:43.528Z,10.63
2018-01-27T08:21:11.079Z,25.20
2018-01-27T08:23:38.606Z,24.37
2018-01-27T08:26:07.094Z,15.27
2018-01-27T08:28:36.318Z,13.47
2018-01-27T08:31:04.739Z,13.87
2018-01-27T08:33:32.305Z,12.20
2018-01-27T08:35:59.842Z,14.20
2018-01-27T08:38:27.399Z,11.20
2018-01-27T08:40:54.936Z,11.30
2018-01-27T08:43:22.479Z,12.77
2018-01-27T08:45:50.010Z,10.23
2018-01-27T08:48:17.558Z,9.00
2018-01-27T08:50:45.112Z,10.10
2018-01-27T08:53:12.646Z,8.80
2018-01-27T08:55:40.234Z,9.00
2018-01-27T08:58:07.794Z,12.50
2018-01-27T09:00:36.306Z,15.90
2018-01-27T09:03:03.838Z,15.63
2018-01-27T09:05:31.406Z,34.10
2018-01-27T09:07:59.889Z,21.03
2018-01-27T09:10:27.465Z,20.90
2018-01-27T09:12:55.014Z,15.10
2018-01-27T09:15:22.578Z,10.40
2018-01-27T09:17:50.091Z,8.53
2018-01-27T09:20:17.638Z,10.07
2018-01-27T09:22:45.168Z,13.93
2018-01-27T09:25:13.532Z,13.20
2018-01-27T09:27:41.033Z,9.00
2018-01-27T09:30:08.551Z,7.67
2018-01-27T09:32:36.098Z,6.13
2018-01-27T09:35:03.621Z,6.27
2018-01-27T09:37:31.166Z,6.90
2018-01-27T09:39:58.673Z,9.97
2018-01-27T09:42:26.226Z,9.50
2018-01-27T09:44:53.754Z,13.33
2018-01-27T09:47:21.306Z,118.83
2018-01-27T09:49:48.826Z,28.33
2018-01-27T09:52:21.265Z,18.70
2018-01-27T09:54:57.317Z,12.83
2018-01-27T09:57:25.697Z,10.23
2018-01-27T09:59:54.182Z,11.00
2018-01-27T10:02:21.715Z,15.90
2018-01-27T10:04:49.323Z,10.40
2018-01-27T10:07:16.848Z,14.30
2018-01-27T10:09:44.388Z,6.37
2018-01-27T10:12:12.859Z,9.10
2018-01-27T10:14:40.406Z,7.23
2018-01-27T10:17:07.922Z,5.27
2018-01-27T10:19:35.464Z,6.00
2018-01-27T10:22:02.998Z,4.93
2018-01-27T10:24:30.514Z,5.33
2018-01-27T10:26:58.079Z,5.63
2018-01-27T10:29:26.375Z,5.40
2018-01-27T10:31:54.895Z,6.03
2018-01-27T10:34:22.455Z,7.90
2018-01-27T10:36:51.998Z,5.77
2018-01-27T10:39:19.522Z,7.67
2018-01-27T10:41:47.046Z,6.60
2018-01-27T10:44:14.593Z,5.90
2018-01-27T10:46:42.120Z,7.07
2018-01-27T10:49:09.719Z,6.77
2018-01-27T10:51:37.248Z,7.80
2018-01-27T10:54:04.814Z,8.40
2018-01-27T10:56:32.350Z,6.80
2018-01-27T10:58:59.914Z,7.23
2018-01-27T11:01:28.211Z,7.77
2018-01-27T11:03:55.746Z,8.43
2018-01-27T11:06:23.311Z,7.30
2018-01-27T11:08:50.846Z,8.43
2018-01-27T11:11:22.446Z,7.90
2018-01-27T11:13:50.021Z,7.13
2018-01-27T11:16:19.451Z,11.07
2018-01-27T11:18:46.966Z,12.67
2018-01-27T11:21:15.278Z,10.47
2018-01-27T11:23:42.798Z,10.33
2018-01-27T11:26:11.096Z,8.90
2018-01-27T11:28:38.638Z,9.20
2018-01-27T11:31:07.894Z,9.23
2018-01-27T11:33:35.450Z,10.33
2018-01-27T11:36:02.979Z,10.93
2018-01-27T11:38:32.506Z,10.37
2018-01-27T11:41:00.036Z,9.53
2018-01-27T11:43:27.603Z,9.40
2018-01-27T11:45:55.136Z,17.23
2018-01-27T11:48:23.431Z,18.37
2018-01-27T11:50:50.994Z,22.00
2018-01-27T11:53:18.534Z,21.90
2018-01-27T11:55:47.777Z,21.57
2018-01-27T11:58:15.293Z,19.90
2018-01-27T12:00:43.625Z,17.00
2018-01-27T12:03:11.166Z,17.80
2018-01-27T12:05:38.722Z,19.30
2018-01-27T12:08:07.248Z,17.83
2018-01-27T12:10:34.852Z,17.87
2018-01-27T12:13:02.407Z,17.57
2018-01-27T12:15:29.938Z,16.30
2018-01-27T12:17:58.263Z,16.57
2018-01-27T12:20:26.735Z,19.00
2018-01-27T12:22:56.270Z,17.93
2018-01-27T12:25:23.794Z,18.60
2018-01-27T12:27:51.431Z,22.40
2018-01-27T12:30:19.727Z,22.97
2018-01-27T12:32:47.290Z,20.80
2018-01-27T12:35:14.838Z,21.60
2018-01-27T12:37:42.434Z,21.20
2018-01-27T12:40:09.962Z,21.60
2018-01-27T12:42:37.478Z,23.53
2018-01-27T12:45:05.027Z,23.07
2018-01-27T12:47:32.555Z,23.23
2018-01-27T12:50:00.132Z,23.63
2018-01-27T12:52:27.666Z,23.60
2018-01-27T12:54:55.341Z,26.17
2018-01-27T12:57:30.820Z,24.00
2018-01-27T13:00:12.090Z,23.97
2018-01-27T13:02:40.299Z,19.93
2018-01-27T13:05:07.867Z,23.80
2018-01-27T13:07:36.368Z,23.20
2018-01-27T13:10:03.914Z,20.80
2018-01-27T13:12:31.473Z,23.33
2018-01-27T13:14:59.056Z,20.20
2018-01-27T13:17:26.619Z,20.13
2018-01-27T13:19:54.162Z,18.73
2018-01-27T13:22:23.201Z,18.30
2018-01-27T13:24:50.729Z,16.20
2018-01-27T13:27:20.262Z,16.23
2018-01-27T13:29:47.804Z,18.73
2018-01-27T13:32:15.354Z,19.77
2018-01-27T13:34:42.933Z,20.00
2018-01-27T13:37:10.456Z,19.90
2018-01-27T13:39:38.099Z,19.63
2018-01-27T13:42:06.614Z,19.00
2018-01-27T13:44:34.171Z,20.83
2018-01-27T13:47:01.709Z,19.23
2018-01-27T13:49:31.218Z,20.07
2018-01-27T13:51:58.742Z,22.40
2018-01-27T13:54:27.058Z,22.90
2018-01-27T13:56:54.591Z,21.30
2018-01-27T13:59:22.158Z,24.03
2018-01-27T14:01:49.691Z,24.03
2018-01-27T14:04:17.212Z,28.57
2018-01-27T14:06:44.765Z,26.63
2018-01-27T14:09:12.287Z,25.70
2018-01-27T14:11:39.849Z,28.90
2018-01-27T14:14:07.373Z,27.83
2018-01-27T14:16:34.930Z,24.87
2018-01-27T14:19:02.456Z,28.10
2018-01-27T14:21:30.010Z,29.60
2018-01-27T14:23:57.561Z,28.57
2018-01-27T14:26:25.102Z,26.00
2018-01-27T14:28:52.659Z,38.80
2018-01-27T14:31:21.141Z,29.57
2018-01-27T14:33:48.702Z,33.23
2018-01-27T14:36:16.234Z,27.37
2018-01-27T14:38:45.507Z,26.23
2018-01-27T14:41:13.057Z,31.70
2018-01-27T14:43:40.610Z,30.73
2018-01-27T14:46:08.134Z,28.40
2018-01-27T14:48:35.661Z,30.13
2018-01-27T14:51:03.234Z,27.90
2018-01-27T14:53:31.546Z,28.30
2018-01-27T14:55:59.171Z,31.53
2018-01-27T14:58:26.814Z,31.90
2018-01-27T15:00:55.245Z,35.07
2018-01-27T15:03:22.776Z,29.70
2018-01-27T15:05:50.327Z,31.50
2018-01-27T15:08:17.890Z,36.57
2018-01-27T15:10:46.180Z,31.33
2018-01-27T15:13:13.727Z,33.17
2018-01-27T15:15:41.250Z,30.50
2018-01-27T15:18:08.818Z,31.20
2018-01-27T15:20:36.386Z,32.37
2018-01-27T15:23:04.706Z,31.07
2018-01-27T15:25:32.242Z,30.73
2018-01-27T15:28:00.547Z,35.20
2018-01-27T15:30:28.107Z,30.87
2018-01-27T15:32:55.630Z,30.57
2018-01-27T15:35:23.542Z,31.33
2018-01-27T15:37:51.114Z,30.50
2018-01-27T15:40:18.705Z,27.77
2018-01-27T15:42:47.143Z,28.43
2018-01-27T15:45:16.271Z,29.30
2018-01-27T15:47:43.820Z,28.73
2018-01-27T15:50:11.382Z,29.97
2018-01-27T15:52:38.916Z,59.27
2018-01-27T15:55:06.446Z,53.10
2018-01-27T15:57:33.999Z,34.40
2018-01-27T16:00:01.521Z,32.23
2018-01-27T16:02:31.048Z,30.70
2018-01-27T16:04:58.658Z,30.50
2018-01-27T16:07:28.155Z,34.20
2018-01-27T16:09:55.726Z,33.67
2018-01-27T16:12:23.286Z,37.10
2018-01-27T16:14:50.831Z,36.13
2018-01-27T16:17:18.446Z,64.73
2018-01-27T16:19:46.766Z,34.97
2018-01-27T16:22:14.347Z,36.70
2018-01-27T16:24:41.906Z,33.50
2018-01-27T16:27:09.445Z,35.23
2018-01-27T16:29:37.000Z,36.00
2018-01-27T16:32:04.542Z,34.70
2018-01-27T16:34:32.101Z,36.23
2018-01-27T16:36:59.629Z,45.47
2018-01-27T16:39:27.155Z,40.47
2018-01-27T16:41:54.721Z,37.77
2018-01-27T16:44:22.262Z,36.33
2018-01-27T16:46:50.792Z,36.30
2018-01-27T16:49:19.126Z,30.70
2018-01-27T16:51:46.690Z,32.13
2018-01-27T16:54:14.225Z,33.17
2018-01-27T16:56:41.782Z,38.80
2018-01-27T16:59:09.311Z,33.60
2018-01-27T17:01:36.834Z,29.57
2018-01-27T17:04:04.386Z,30.80
2018-01-27T17:06:31.919Z,34.33
2018-01-27T17:08:59.486Z,33.40
2018-01-27T17:11:27.008Z,34.93
2018-01-27T17:13:54.550Z,31.10
2018-01-27T17:16:22.090Z,32.07
2018-01-27T17:18:49.713Z,35.17
2018-01-27T17:21:17.226Z,32.77
2018-01-27T17:23:45.558Z,29.23
2018-01-27T17:26:13.091Z,30.83
2018-01-27T17:28:40.606Z,29.70
2018-01-27T17:31:08.167Z,31.03
2018-01-27T17:33:35.693Z,33.23
2018-01-27T17:36:03.318Z,44.43
2018-01-27T17:38:31.622Z,30.03
2018-01-27T17:40:59.182Z,29.47
2018-01-27T17:43:26.710Z,30.23
2018-01-27T17:45:56.324Z,31.47
2018-01-27T17:48:23.865Z,32.50
2018-01-27T17:50:51.453Z,30.53
2018-01-27T17:53:20.149Z,36.13
2018-01-27T17:55:47.906Z,34.90
2018-01-27T17:58:15.459Z,33.23
2018-01-27T18:00:44.029Z,33.03
2018-01-27T18:03:12.352Z,33.00
2018-01-27T18:05:39.882Z,33.90
2018-01-27T18:08:07.422Z,31.63
2018-01-27T18:10:36.694Z,31.87
2018-01-27T18:13:04.995Z,33.00
2018-01-27T18:15:34.462Z,33.67
2018-01-27T18:18:01.994Z,34.97
2018-01-27T18:20:29.557Z,39.50
2018-01-27T18:22:57.083Z,32.60
2018-01-27T18:25:25.421Z,34.13
2018-01-27T18:27:52.943Z,36.60
2018-01-27T18:30:20.492Z,34.87
2018-01-27T18:32:48.071Z,35.00
2018-01-27T18:35:15.634Z,35.87
2018-01-27T18:37:43.195Z,35.83
2018-01-27T18:40:10.794Z,34.60
2018-01-27T18:42:38.349Z,35.97
2018-01-27T18:45:06.066Z,37.05
2018-01-27T18:47:34.010Z,35.33
2018-01-27T18:50:01.674Z,36.50
2018-01-27T18:52:29.306Z,35.50
2018-01-27T18:54:57.614Z,35.60
2018-01-27T18:57:25.920Z,48.30
2018-01-27T18:59:53.479Z,38.10
2018-01-27T19:02:21.048Z,34.90
2018-01-27T19:04:48.599Z,33.70
2018-01-27T19:07:16.169Z,35.00
2018-01-27T19:09:43.750Z,33.07
2018-01-27T19:12:11.286Z,33.57
2018-01-27T19:14:39.306Z,32.63
2018-01-27T19:17:06.860Z,41.90
2018-01-27T19:19:35.338Z,30.43
2018-01-27T19:22:03.702Z,34.50
2018-01-27T19:24:31.246Z,31.00
2018-01-27T19:26:58.818Z,30.30
2018-01-27T19:29:27.392Z,30.90
2018-01-27T19:31:54.982Z,31.50
2018-01-27T19:34:22.776Z,29.60
2018-01-27T19:36:50.354Z,29.97
2018-01-27T19:39:17.881Z,27.97
2018-01-27T19:41:45.418Z,28.77
2018-01-27T19:44:13.742Z,29.10
2018-01-27T19:46:41.495Z,29.20
2018-01-27T19:49:09.075Z,31.10
2018-01-27T19:51:36.605Z,29.50
2018-01-27T19:54:04.219Z,29.27
2018-01-27T19:56:31.752Z,28.97
2018-01-27T19:58:59.324Z,29.97
2018-01-27T20:01:26.863Z,28.60
2018-01-27T20:03:54.421Z,31.27
2018-01-27T20:06:21.951Z,29.67
2018-01-27T20:08:49.475Z,31.27
2018-01-27T20:11:17.038Z,30.80
2018-01-27T20:13:45.390Z,34.30
2018-01-27T20:16:12.944Z,33.43
2018-01-27T20:18:40.474Z,31.20
2018-01-27T20:21:08.034Z,28.37
2018-01-27T20:23:35.611Z,28.70
2018-01-27T20:26:03.181Z,28.43
2018-01-27T20:28:30.735Z,30.03
2018-01-27T20:30:58.274Z,30.37
2018-01-27T20:33:25.838Z,30.70
2018-01-27T20:35:53.418Z,32.33
2018-01-27T20:38:22.917Z,32.47
2018-01-27T20:40:50.442Z,41.97
2018-01-27T20:43:17.989Z,34.83
2018-01-27T20:45:45.525Z,33.27
2018-01-27T20:48:13.081Z,37.80
2018-01-27T20:50:41.586Z,32.97
2018-01-27T20:53:10.087Z,33.90
2018-01-27T20:55:37.666Z,34.60
2018-01-27T20:58:05.202Z,34.10
2018-01-27T21:00:32.773Z,52.33
2018-01-27T21:03:00.326Z,35.77
2018-01-27T21:05:27.891Z,38.47
2018-01-27T21:07:55.469Z,31.40
2018-01-27T21:10:23.026Z,31.67
2018-01-27T21:12:50.703Z,31.60
2018-01-27T21:15:18.235Z,30.83
2018-01-27T21:17:45.778Z,29.43
2018-01-27T21:20:13.315Z,32.60
2018-01-27T21:22:42.875Z,33.80
2018-01-27T21:25:10.397Z,32.90
2018-01-27T21:27:38.926Z,31.80
2018-01-27T21:30:06.831Z,32.70
2018-01-27T21:32:35.187Z,34.63
2018-01-27T21:35:02.718Z,32.70
2018-01-27T21:37:30.255Z,33.83
2018-01-27T21:39:57.822Z,57.33
2018-01-27T21:42:25.356Z,39.10
2018-01-27T21:44:52.910Z,32.10
2018-01-27T21:47:21.313Z,30.53
2018-01-27T21:49:48.858Z,30.60
2018-01-27T21:52:16.386Z,31.93
2018-01-27T21:54:43.930Z,49.30
2018-01-27T21:57:11.470Z,34.83
2018-01-27T21:59:40.020Z,29.53
2018-01-27T22:02:07.682Z,29.10
2018-01-27T22:04:35.218Z,28.47
2018-01-27T22:07:02.788Z,32.40
2018-01-27T22:09:30.318Z,28.13
2018-01-27T22:11:57.886Z,29.13
2018-01-27T22:14:26.178Z,30.77
2018-01-27T22:16:54.541Z,30.37
2018-01-27T22:19:22.829Z,29.03
2018-01-27T22:21:51.194Z,28.57
2018-01-27T22:24:19.650Z,32.67
2018-01-27T22:26:47.198Z,39.03
2018-01-27T22:29:14.728Z,30.80
2018-01-27T22:31:42.243Z,32.70
2018-01-27T22:34:09.809Z,36.37
2018-01-27T22:36:39.349Z,34.10
2018-01-27T22:39:06.910Z,32.40
2018-01-27T22:41:34.434Z,31.73
2018-01-27T22:44:02.757Z,29.43
2018-01-27T22:46:30.286Z,27.70
2018-01-27T22:48:58.826Z,27.03
2018-01-27T22:51:26.370Z,26.93
2018-01-27T22:53:54.023Z,29.53
2018-01-27T22:56:21.578Z,27.30
2018-01-27T22:58:49.109Z,26.60
2018-01-27T23:01:22.483Z,26.27
2018-01-27T23:03:49.998Z,25.33
2018-01-27T23:06:17.530Z,24.60
2018-01-27T23:08:45.074Z,31.37
2018-01-27T23:11:12.604Z,26.03
2018-01-27T23:13:40.155Z,27.53
2018-01-27T23:16:08.781Z,25.40
2018-01-27T23:18:36.322Z,25.40
2018-01-27T23:21:05.521Z,24.10
2018-01-27T23:23:33.105Z,24.20
2018-01-27T23:26:01.594Z,26.57
2018-01-27T23:28:29.116Z,25.50
2018-01-27T23:30:57.447Z,23.33
2018-01-27T23:33:25.928Z,24.70
2018-01-27T23:35:53.483Z,23.80
2018-01-27T23:38:22.003Z,26.23
2018-01-27T23:40:50.318Z,22.63
2018-01-27T23:43:17.847Z,21.47
2018-01-27T23:45:46.142Z,21.47
2018-01-27T23:48:13.698Z,21.53
2018-01-27T23:50:41.992Z,21.00
2018-01-27T23:53:09.544Z,20.03
2018-01-27T23:55:37.070Z,19.93
2018-01-27T23:58:05.578Z,20.10
